Time;durP1;ratioP1;P1;durP2;ratioP2;P2;SDS_P1;SDS_P2;PMS_P1;PMS_P2;Temp;Humidity;BMP_temperature;BMP_pressure;BME280_temperature;BME280_humidity;BME280_pressure;Samples;Min_cycle;Max_cycle;Signal;HPM_P1;HPM_P2
2021/05/22 00:00:47;;;;;;;;;;;18.80;50.70;;;;;;461565;258;1171;-45
2021/05/22 00:02:48;;;;;;;;;;;18.80;50.70;;;;;;461541;258;1132;-44
2021/05/22 00:04:49;;;;;;;;;;;18.70;50.70;;;;;;461599;258;1051;-44
2021/05/22 00:06:51;;;;;;;;;;;18.70;50.70;;;;;;461160;258;1204;-45
2021/05/22 00:08:52;;;;;;;;;;;18.70;50.70;;;;;;461157;258;1198;-45
2021/05/22 00:10:53;;;;;;;;;;;18.70;50.70;;;;;;461500;258;1149;-45
2021/05/22 00:12:54;;;;;;;;;;;18.70;50.70;;;;;;461057;258;1166;-45
2021/05/22 00:14:56;;;;;;;;;;;18.70;50.60;;;;;;461096;258;1245;-45
2021/05/22 00:16:57;;;;;;;;;;;18.70;50.70;;;;;;461264;258;1205;-45
2021/05/22 00:18:58;;;;;;;;;;;18.70;50.70;;;;;;461208;258;2153;-45
2021/05/22 00:21:00;;;;;;;;;;;18.70;50.70;;;;;;461076;258;1194;-44
2021/05/22 00:23:01;;;;;;;;;;;18.70;50.70;;;;;;461201;258;1095;-44
2021/05/22 00:25:02;;;;;;;;;;;18.70;50.70;;;;;;461296;258;1620;-45
2021/05/22 00:27:03;;;;;;;;;;;18.70;50.80;;;;;;461058;258;1248;-45
2021/05/22 00:29:05;;;;;;;;;;;18.60;50.80;;;;;;461239;258;1079;-44
2021/05/22 00:31:06;;;;;;;;;;;18.60;50.80;;;;;;461125;258;1254;-44
2021/05/22 00:33:07;;;;;;;;;;;18.70;50.80;;;;;;461554;258;1379;-44
2021/05/22 00:35:09;;;;;;;;;;;18.70;50.80;;;;;;461519;258;1068;-44
2021/05/22 00:37:10;;;;;;;;;;;18.60;50.70;;;;;;460933;258;1166;-45
2021/05/22 00:39:11;;;;;;;;;;;18.60;50.80;;;;;;461048;258;2200;-44
2021/05/22 00:41:12;;;;;;;;;;;18.50;50.80;;;;;;460975;258;1297;-44
2021/05/22 00:43:14;;;;;;;;;;;18.50;50.90;;;;;;461468;258;1180;-44
2021/05/22 00:45:15;;;;;;;;;;;18.50;51.00;;;;;;461096;258;1106;-44
2021/05/22 00:47:16;;;;;;;;;;;18.60;51.00;;;;;;461348;258;1153;-44
2021/05/22 00:49:17;;;;;;;;;;;18.60;50.90;;;;;;461516;258;1104;-44
2021/05/22 00:51:19;;;;;;;;;;;18.60;50.80;;;;;;461130;258;1265;-45
2021/05/22 00:53:20;;;;;;;;;;;18.60;50.80;;;;;;461252;258;1276;-44
2021/05/22 00:55:21;;;;;;;;;;;18.60;50.80;;;;;;461405;258;1099;-44
2021/05/22 00:57:23;;;;;;;;;;;18.60;50.80;;;;;;461153;258;1245;-44
2021/05/22 00:59:24;;;;;;;;;;;18.50;50.80;;;;;;461196;258;2165;-44
2021/05/22 01:01:25;;;;;;;;;;;18.60;50.80;;;;;;461317;258;1214;-44
2021/05/22 01:03:27;;;;;;;;;;;18.60;50.80;;;;;;461034;258;1139;-44
2021/05/22 01:05:28;;;;;;;;;;;18.60;50.70;;;;;;461491;258;1428;-44
2021/05/22 01:07:29;;;;;;;;;;;18.60;50.70;;;;;;461088;258;1305;-45
2021/05/22 01:09:31;;;;;;;;;;;18.60;50.80;;;;;;461297;258;1103;-45
2021/05/22 01:11:32;;;;;;;;;;;18.50;50.80;;;;;;461210;258;1262;-44
2021/05/22 01:13:34;;;;;;;;;;;18.50;50.90;;;;;;461538;258;1066;-45
2021/05/22 01:15:34;;;;;;;;;;;18.50;51.00;;;;;;461388;258;1557;-44
2021/05/22 01:17:36;;;;;;;;;;;18.40;51.00;;;;;;461178;258;1288;-44
2021/05/22 01:19:37;;;;;;;;;;;18.50;51.00;;;;;;461581;258;2144;-44
2021/05/22 01:21:38;;;;;;;;;;;18.60;50.70;;;;;;461326;258;1265;-44
2021/05/22 01:23:40;;;;;;;;;;;19.00;49.60;;;;;;461269;258;1247;-45
2021/05/22 01:25:41;;;;;;;;;;;19.50;48.40;;;;;;461517;258;1157;-44
2021/05/22 01:27:42;;;;;;;;;;;19.80;47.60;;;;;;461220;258;1171;-45
2021/05/22 01:29:43;;;;;;;;;;;20.00;47.10;;;;;;461486;258;1131;-45
2021/05/22 01:31:45;;;;;;;;;;;20.20;46.70;;;;;;460987;258;1104;-45
2021/05/22 01:33:46;;;;;;;;;;;20.30;46.30;;;;;;461115;258;1104;-45
2021/05/22 01:35:47;;;;;;;;;;;20.40;46.10;;;;;;461183;258;1081;-45
2021/05/22 01:37:49;;;;;;;;;;;20.50;45.80;;;;;;461058;258;1360;-44
2021/05/22 01:39:50;;;;;;;;;;;20.60;45.70;;;;;;461469;258;2152;-45
2021/05/22 01:41:51;;;;;;;;;;;20.60;45.50;;;;;;461158;258;1351;-45
2021/05/22 01:43:52;;;;;;;;;;;20.70;45.40;;;;;;461612;258;1076;-45
2021/05/22 01:45:54;;;;;;;;;;;20.70;45.40;;;;;;461106;258;1155;-45
2021/05/22 01:47:55;;;;;;;;;;;20.80;45.30;;;;;;461181;258;1292;-45
2021/05/22 01:49:57;;;;;;;;;;;20.90;45.20;;;;;;461611;258;1087;-45
2021/05/22 01:51:58;;;;;;;;;;;20.90;45.00;;;;;;461163;258;1220;-45
2021/05/22 01:53:59;;;;;;;;;;;20.90;44.90;;;;;;461305;258;1186;-45
2021/05/22 01:56:00;;;;;;;;;;;21.00;44.90;;;;;;461275;258;1333;-45
2021/05/22 01:58:02;;;;;;;;;;;21.00;44.80;;;;;;461078;258;1217;-45
2021/05/22 02:00:03;;;;;;;;;;;21.00;44.70;;;;;;461261;258;2209;-45
2021/05/22 02:02:04;;;;;;;;;;;21.10;44.60;;;;;;461106;258;1340;-45
2021/05/22 02:04:06;;;;;;;;;;;21.20;44.50;;;;;;461282;258;1079;-45
2021/05/22 02:06:07;;;;;;;;;;;21.20;44.40;;;;;;461046;258;1268;-45
2021/05/22 02:08:08;;;;;;;;;;;21.20;44.40;;;;;;461131;258;1186;-45
2021/05/22 02:10:09;;;;;;;;;;;21.20;44.30;;;;;;461278;258;1083;-44
2021/05/22 02:12:11;;;;;;;;;;;21.30;44.30;;;;;;461144;258;1181;-45
2021/05/22 02:14:12;;;;;;;;;;;21.30;44.20;;;;;;461472;258;1265;-45
2021/05/22 02:16:13;;;;;;;;;;;21.30;44.20;;;;;;461195;258;1574;-44
2021/05/22 02:18:14;;;;;;;;;;;21.40;44.10;;;;;;461159;258;1243;-45
2021/05/22 02:20:16;;;;;;;;;;;21.40;44.10;;;;;;461330;258;2204;-45
2021/05/22 02:22:17;;;;;;;;;;;21.40;44.00;;;;;;461164;258;1377;-45
2021/05/22 02:24:18;;;;;;;;;;;21.40;44.00;;;;;;461063;258;1256;-45
2021/05/22 02:26:20;;;;;;;;;;;21.40;43.90;;;;;;461304;258;1214;-45
2021/05/22 02:28:21;;;;;;;;;;;21.50;43.90;;;;;;461063;258;1260;-45
2021/05/22 02:30:22;;;;;;;;;;;21.50;43.90;;;;;;461495;258;1092;-45
2021/05/22 02:32:24;;;;;;;;;;;21.50;43.80;;;;;;461082;258;1123;-45
2021/05/22 02:34:25;;;;;;;;;;;21.50;43.80;;;;;;461430;258;1107;-45
2021/05/22 02:36:26;;;;;;;;;;;21.60;43.80;;;;;;461281;258;1184;-45
2021/05/22 02:38:27;;;;;;;;;;;21.60;43.70;;;;;;461488;258;1317;-45
2021/05/22 02:40:29;;;;;;;;;;;21.60;43.70;;;;;;461503;258;2203;-45
2021/05/22 02:42:30;;;;;;;;;;;21.60;43.70;;;;;;461516;258;1172;-45
2021/05/22 02:44:31;;;;;;;;;;;21.60;43.60;;;;;;461378;258;1093;-45
2021/05/22 02:46:32;;;;;;;;;;;21.70;43.60;;;;;;461516;258;1331;-44
2021/05/22 02:48:34;;;;;;;;;;;21.60;43.60;;;;;;461531;258;1080;-45
2021/05/22 02:50:35;;;;;;;;;;;21.70;43.60;;;;;;461082;258;1415;-45
2021/05/22 02:52:36;;;;;;;;;;;21.70;43.50;;;;;;461209;258;1176;-44
2021/05/22 02:54:39;;;;;;;;;;;21.70;43.60;;;;;;461223;258;1286;-45
2021/05/22 02:56:39;;;;;;;;;;;21.70;43.60;;;;;;461236;258;1463;-45
2021/05/22 02:58:40;;;;;;;;;;;21.20;44.40;;;;;;461055;258;1112;-45
2021/05/22 03:00:41;;;;;;;;;;;20.70;45.70;;;;;;461111;258;2149;-45
2021/05/22 03:02:43;;;;;;;;;;;20.30;46.60;;;;;;461178;258;1212;-45
2021/05/22 03:04:44;;;;;;;;;;;20.10;47.30;;;;;;461224;258;1234;-44
2021/05/22 03:06:45;;;;;;;;;;;19.90;47.80;;;;;;461286;258;1406;-44
2021/05/22 03:08:46;;;;;;;;;;;19.70;48.20;;;;;;461146;258;1185;-45
2021/05/22 03:10:48;;;;;;;;;;;19.70;48.40;;;;;;461386;258;1189;-44
2021/05/22 03:12:49;;;;;;;;;;;19.60;48.60;;;;;;461125;258;1260;-44
2021/05/22 03:14:50;;;;;;;;;;;19.50;48.80;;;;;;461168;258;1208;-45
2021/05/22 03:16:52;;;;;;;;;;;19.40;49.00;;;;;;461141;258;1208;-45
2021/05/22 03:18:53;;;;;;;;;;;19.30;49.20;;;;;;461253;258;1102;-44
2021/05/22 03:20:54;;;;;;;;;;;19.30;49.40;;;;;;461064;258;2145;-44
2021/05/22 03:22:55;;;;;;;;;;;19.30;49.50;;;;;;461175;258;1054;-44
2021/05/22 03:24:57;;;;;;;;;;;19.20;49.50;;;;;;461102;258;1179;-45
2021/05/22 03:26:58;;;;;;;;;;;19.30;49.60;;;;;;461242;258;1362;-44
2021/05/22 03:28:59;;;;;;;;;;;19.20;49.60;;;;;;461360;258;1098;-45
2021/05/22 03:31:01;;;;;;;;;;;19.20;49.60;;;;;;461610;258;1190;-45
2021/05/22 03:33:02;;;;;;;;;;;19.20;49.60;;;;;;461116;258;1078;-44
2021/05/22 03:35:03;;;;;;;;;;;19.10;49.80;;;;;;461646;258;1068;-44
2021/05/22 03:37:04;;;;;;;;;;;19.10;50.00;;;;;;461320;258;1188;-45
2021/05/22 03:39:06;;;;;;;;;;;19.00;50.10;;;;;;461148;258;1071;-44
2021/05/22 03:41:07;;;;;;;;;;;18.90;50.10;;;;;;461060;258;2180;-44
2021/05/22 03:43:08;;;;;;;;;;;19.00;50.20;;;;;;461204;258;1083;-44
2021/05/22 03:45:09;;;;;;;;;;;19.00;50.10;;;;;;461385;258;1080;-45
2021/05/22 03:47:11;;;;;;;;;;;19.00;50.10;;;;;;461123;258;1211;-44
2021/05/22 03:49:12;;;;;;;;;;;19.00;50.20;;;;;;461290;258;1271;-44
2021/05/22 03:51:13;;;;;;;;;;;19.00;50.20;;;;;;461481;258;1266;-45
2021/05/22 03:53:15;;;;;;;;;;;18.90;50.20;;;;;;461339;258;1145;-45
2021/05/22 03:55:16;;;;;;;;;;;18.90;50.30;;;;;;461428;258;1105;-45
2021/05/22 03:57:18;;;;;;;;;;;18.90;50.40;;;;;;461460;258;1115;-44
2021/05/22 03:59:19;;;;;;;;;;;18.90;50.40;;;;;;461376;258;1034;-44
2021/05/22 04:01:20;;;;;;;;;;;18.90;50.20;;;;;;461558;258;2157;-45
2021/05/22 04:03:23;;;;;;;;;;;18.80;50.30;;;;;;461135;258;1272;-45
2021/05/22 04:05:23;;;;;;;;;;;18.90;50.40;;;;;;461206;258;2452;-45
2021/05/22 04:07:24;;;;;;;;;;;18.80;50.40;;;;;;461533;258;1287;-44
2021/05/22 04:09:26;;;;;;;;;;;18.80;50.40;;;;;;461182;258;1101;-44
2021/05/22 04:11:27;;;;;;;;;;;18.70;50.60;;;;;;461023;258;1159;-44
2021/05/22 04:13:28;;;;;;;;;;;18.70;50.70;;;;;;461238;258;1082;-44
2021/05/22 04:15:29;;;;;;;;;;;18.70;50.70;;;;;;461144;258;1104;-44
2021/05/22 04:17:31;;;;;;;;;;;18.70;50.70;;;;;;461013;258;1237;-45
2021/05/22 04:19:32;;;;;;;;;;;18.70;50.70;;;;;;461187;258;1090;-44
2021/05/22 04:21:33;;;;;;;;;;;18.70;50.80;;;;;;461145;258;2208;-45
2021/05/22 04:23:35;;;;;;;;;;;18.70;50.80;;;;;;461183;258;1081;-45
2021/05/22 04:25:36;;;;;;;;;;;18.60;50.80;;;;;;461466;258;1358;-44
2021/05/22 04:27:37;;;;;;;;;;;18.70;50.70;;;;;;461370;258;1075;-44
2021/05/22 04:29:38;;;;;;;;;;;18.70;50.70;;;;;;461589;258;1146;-44
2021/05/22 04:31:40;;;;;;;;;;;18.70;50.70;;;;;;461490;258;1101;-44
2021/05/22 04:33:41;;;;;;;;;;;18.70;50.70;;;;;;461289;258;1071;-44
2021/05/22 04:35:42;;;;;;;;;;;18.60;50.70;;;;;;461084;258;1119;-44
2021/05/22 04:37:44;;;;;;;;;;;18.60;50.80;;;;;;461312;258;1092;-45
2021/05/22 04:39:45;;;;;;;;;;;18.60;50.70;;;;;;461476;258;1295;-44
2021/05/22 04:41:46;;;;;;;;;;;18.60;50.70;;;;;;461146;258;2199;-44
2021/05/22 04:43:47;;;;;;;;;;;18.60;50.70;;;;;;461190;258;1083;-44
2021/05/22 04:45:49;;;;;;;;;;;18.60;50.80;;;;;;461114;258;1097;-45
2021/05/22 04:47:50;;;;;;;;;;;18.60;50.70;;;;;;461140;258;1086;-44
2021/05/22 04:49:51;;;;;;;;;;;18.60;50.70;;;;;;461524;258;1057;-45
2021/05/22 04:51:52;;;;;;;;;;;18.60;50.80;;;;;;461183;258;1058;-44
2021/05/22 04:53:54;;;;;;;;;;;18.60;50.80;;;;;;461434;258;1109;-45
2021/05/22 04:55:55;;;;;;;;;;;18.60;50.90;;;;;;461439;258;1276;-44
2021/05/22 04:57:56;;;;;;;;;;;18.50;50.90;;;;;;461372;258;1088;-44
2021/05/22 04:59:58;;;;;;;;;;;18.60;50.90;;;;;;461620;258;1061;-44
2021/05/22 05:01:59;;;;;;;;;;;18.50;50.80;;;;;;461014;258;2200;-44
2021/05/22 05:04:00;;;;;;;;;;;18.50;50.90;;;;;;461287;258;1117;-45
2021/05/22 05:06:01;;;;;;;;;;;18.50;50.90;;;;;;461035;258;1623;-45
2021/05/22 05:08:03;;;;;;;;;;;18.50;51.00;;;;;;461362;258;1144;-45
2021/05/22 05:10:04;;;;;;;;;;;18.50;50.90;;;;;;461188;258;1101;-44
2021/05/22 05:12:05;;;;;;;;;;;18.50;50.80;;;;;;460996;258;1593;-44
2021/05/22 05:14:07;;;;;;;;;;;18.70;50.40;;;;;;461547;258;1057;-45
2021/05/22 05:16:08;;;;;;;;;;;19.20;49.10;;;;;;461484;258;1212;-44
2021/05/22 05:18:10;;;;;;;;;;;19.60;48.10;;;;;;461270;258;1180;-45
2021/05/22 05:20:10;;;;;;;;;;;19.90;47.40;;;;;;461575;258;2256;-45
2021/05/22 05:22:12;;;;;;;;;;;20.10;46.90;;;;;;461165;258;1965;-44
2021/05/22 05:24:13;;;;;;;;;;;20.30;46.50;;;;;;461198;258;1152;-45
2021/05/22 05:26:14;;;;;;;;;;;20.40;46.20;;;;;;461488;258;1163;-45
2021/05/22 05:28:16;;;;;;;;;;;20.50;45.80;;;;;;461161;258;1073;-45
2021/05/22 05:30:17;;;;;;;;;;;20.50;45.70;;;;;;461069;258;1454;-45
2021/05/22 05:32:18;;;;;;;;;;;20.60;45.60;;;;;;461151;258;1361;-45
2021/05/22 05:34:19;;;;;;;;;;;20.70;45.40;;;;;;461060;258;1118;-45
2021/05/22 05:36:21;;;;;;;;;;;20.70;45.30;;;;;;461295;258;1184;-45
2021/05/22 05:38:22;;;;;;;;;;;20.80;45.20;;;;;;461047;258;1128;-45
2021/05/22 05:40:24;;;;;;;;;;;20.80;45.10;;;;;;461509;258;2207;-44
2021/05/22 05:42:25;;;;;;;;;;;20.90;45.10;;;;;;461185;258;1214;-45
2021/05/22 05:44:26;;;;;;;;;;;20.90;44.90;;;;;;461329;258;1211;-45
2021/05/22 05:46:27;;;;;;;;;;;21.00;44.90;;;;;;461242;258;1519;-44
2021/05/22 05:48:29;;;;;;;;;;;21.00;44.80;;;;;;461171;258;1105;-45
2021/05/22 05:50:30;;;;;;;;;;;21.00;44.70;;;;;;461267;258;1161;-45
2021/05/22 05:52:32;;;;;;;;;;;21.10;44.60;;;;;;461066;258;1231;-45
2021/05/22 05:54:33;;;;;;;;;;;21.10;44.50;;;;;;461131;258;1098;-45
2021/05/22 05:56:34;;;;;;;;;;;21.10;44.50;;;;;;461199;258;1284;-45
2021/05/22 05:58:36;;;;;;;;;;;21.20;44.40;;;;;;461264;258;1161;-45
2021/05/22 06:00:37;;;;;;;;;;;21.20;44.30;;;;;;461053;258;2145;-44
2021/05/22 06:02:38;;;;;;;;;;;21.20;44.20;;;;;;461074;258;1387;-45
2021/05/22 06:04:39;;;;;;;;;;;21.30;44.30;;;;;;461285;258;1104;-45
2021/05/22 06:06:41;;;;;;;;;;;21.30;44.20;;;;;;461256;258;1403;-45
2021/05/22 06:08:42;;;;;;;;;;;21.30;44.20;;;;;;461470;258;1097;-45
2021/05/22 06:10:44;;;;;;;;;;;21.30;44.10;;;;;;461181;258;1489;-45
2021/05/22 06:12:46;;;;;;;;;;;21.40;44.10;;;;;;461219;258;2488;-45
2021/05/22 06:14:50;;;;;;;;;;;21.40;44.10;;;;;;461497;258;2424;-45
2021/05/22 06:16:47;;;;;;;;;;;21.40;44.00;;;;;;460968;258;2076;-45
2021/05/22 06:18:48;;;;;;;;;;;21.40;44.00;;;;;;461104;258;1135;-45
2021/05/22 06:20:50;;;;;;;;;;;21.50;43.90;;;;;;461520;258;2140;-45
2021/05/22 06:22:51;;;;;;;;;;;21.50;43.90;;;;;;461348;258;1174;-45
2021/05/22 06:24:52;;;;;;;;;;;21.50;43.90;;;;;;461187;258;1359;-45
2021/05/22 06:26:54;;;;;;;;;;;21.50;43.80;;;;;;461134;258;1397;-45
2021/05/22 06:28:55;;;;;;;;;;;21.50;43.80;;;;;;461052;258;1067;-45
2021/05/22 06:30:56;;;;;;;;;;;21.60;43.70;;;;;;461459;258;1146;-45
2021/05/22 06:32:57;;;;;;;;;;;21.60;43.70;;;;;;461380;258;1228;-45
2021/05/22 06:34:59;;;;;;;;;;;21.60;43.70;;;;;;461173;258;1084;-45
2021/05/22 06:37:00;;;;;;;;;;;21.60;43.70;;;;;;461236;258;1334;-45
2021/05/22 06:39:01;;;;;;;;;;;21.60;43.60;;;;;;461383;258;1214;-45
2021/05/22 06:41:03;;;;;;;;;;;21.60;43.60;;;;;;461193;258;2201;-45
2021/05/22 06:43:04;;;;;;;;;;;21.70;43.70;;;;;;461311;258;1577;-45
2021/05/22 06:45:09;;;;;;;;;;;21.60;43.60;;;;;;461497;258;1186;-44
2021/05/22 06:47:08;;;;;;;;;;;21.20;44.60;;;;;;461123;258;2384;-45
2021/05/22 06:49:09;;;;;;;;;;;20.60;45.80;;;;;;461488;258;1094;-45
2021/05/22 06:51:10;;;;;;;;;;;20.30;46.80;;;;;;461299;258;1261;-44
2021/05/22 06:53:12;;;;;;;;;;;20.00;47.40;;;;;;461422;258;1068;-45
2021/05/22 06:55:13;;;;;;;;;;;19.90;47.80;;;;;;461237;258;1172;-45
2021/05/22 06:57:16;;;;;;;;;;;19.70;48.20;;;;;;461413;258;1295;-45
2021/05/22 06:59:16;;;;;;;;;;;19.60;48.60;;;;;;461019;258;1503;-45
2021/05/22 07:01:17;;;;;;;;;;;19.50;48.70;;;;;;461492;258;2200;-44
2021/05/22 07:03:18;;;;;;;;;;;19.50;49.00;;;;;;461560;258;1086;-44
2021/05/22 07:05:19;;;;;;;;;;;19.40;49.00;;;;;;461147;258;1131;-44
2021/05/22 07:07:21;;;;;;;;;;;19.40;49.10;;;;;;461520;258;1104;-44
2021/05/22 07:09:22;;;;;;;;;;;19.30;49.20;;;;;;461101;258;1262;-44
2021/05/22 07:11:24;;;;;;;;;;;19.30;49.30;;;;;;461534;258;1554;-45
2021/05/22 07:13:25;;;;;;;;;;;19.20;49.40;;;;;;461226;258;1161;-44
2021/05/22 07:15:26;;;;;;;;;;;19.20;49.50;;;;;;461233;258;1146;-44
2021/05/22 07:17:27;;;;;;;;;;;19.10;49.60;;;;;;461331;258;1168;-44
2021/05/22 07:19:29;;;;;;;;;;;19.10;49.70;;;;;;461091;258;1075;-44
2021/05/22 07:21:30;;;;;;;;;;;19.10;49.70;;;;;;461384;258;2168;-45
2021/05/22 07:23:31;;;;;;;;;;;19.10;49.80;;;;;;461337;258;1348;-44
2021/05/22 07:25:33;;;;;;;;;;;19.10;49.90;;;;;;461504;258;1080;-44
2021/05/22 07:27:36;;;;;;;;;;;19.00;49.80;;;;;;461087;258;1512;-45
2021/05/22 07:29:36;;;;;;;;;;;19.00;49.90;;;;;;461145;258;1836;-45
2021/05/22 07:31:40;;;;;;;;;;;19.00;50.00;;;;;;461408;258;1204;-44
2021/05/22 07:33:41;;;;;;;;;;;19.00;49.80;;;;;;461049;258;2489;-45
2021/05/22 07:35:41;;;;;;;;;;;19.00;49.90;;;;;;461125;258;2243;-44
2021/05/22 07:37:43;;;;;;;;;;;18.90;50.10;;;;;;461160;258;1399;-44
2021/05/22 07:39:44;;;;;;;;;;;19.00;50.10;;;;;;461129;258;1101;-45
2021/05/22 07:41:45;;;;;;;;;;;18.90;50.10;;;;;;461077;258;2141;-44
2021/05/22 07:43:46;;;;;;;;;;;18.90;50.20;;;;;;461083;258;1196;-44
2021/05/22 07:45:48;;;;;;;;;;;18.90;50.20;;;;;;461256;258;1112;-44
2021/05/22 07:47:49;;;;;;;;;;;18.90;50.20;;;;;;461156;258;1059;-45
2021/05/22 07:49:51;;;;;;;;;;;18.90;50.30;;;;;;461089;258;1117;-44
2021/05/22 07:51:52;;;;;;;;;;;18.80;50.20;;;;;;461480;258;1236;-45
2021/05/22 07:53:53;;;;;;;;;;;18.80;50.30;;;;;;461345;258;1102;-45
2021/05/22 07:55:55;;;;;;;;;;;18.80;50.30;;;;;;461521;258;1112;-44
2021/05/22 07:57:57;;;;;;;;;;;18.80;50.20;;;;;;461278;258;1210;-44
2021/05/22 07:59:58;;;;;;;;;;;18.80;50.30;;;;;;461170;258;1176;-44
2021/05/22 08:01:59;;;;;;;;;;;18.80;50.30;;;;;;461119;258;2196;-44
2021/05/22 08:04:00;;;;;;;;;;;18.80;50.40;;;;;;461196;258;1230;-45
2021/05/22 08:06:02;;;;;;;;;;;18.80;50.40;;;;;;461317;258;1017;-44
2021/05/22 08:08:03;;;;;;;;;;;18.80;50.40;;;;;;461073;258;1269;-44
2021/05/22 08:10:04;;;;;;;;;;;18.80;50.50;;;;;;461155;258;1304;-44
2021/05/22 08:12:05;;;;;;;;;;;18.70;50.50;;;;;;461056;258;1205;-45
2021/05/22 08:14:07;;;;;;;;;;;18.80;50.50;;;;;;461065;258;1180;-44
2021/05/22 08:16:08;;;;;;;;;;;18.70;50.40;;;;;;461172;258;1377;-44
2021/05/22 08:18:09;;;;;;;;;;;18.70;50.50;;;;;;461537;258;1074;-45
2021/05/22 08:20:11;;;;;;;;;;;18.70;50.50;;;;;;461197;258;1065;-45
2021/05/22 08:22:12;;;;;;;;;;;18.70;50.50;;;;;;461575;258;2149;-44
2021/05/22 08:24:14;;;;;;;;;;;18.70;50.50;;;;;;461606;258;1089;-44
2021/05/22 08:26:15;;;;;;;;;;;18.70;50.50;;;;;;461174;258;1089;-44
2021/05/22 08:28:21;;;;;;;;;;;18.70;50.50;;;;;;461475;258;1033;-44
2021/05/22 08:30:21;;;;;;;;;;;18.70;50.50;;;;;;461151;258;2468;-45
2021/05/22 08:32:22;;;;;;;;;;;18.70;50.50;;;;;;461295;258;1324;-44
2021/05/22 08:34:25;;;;;;;;;;;18.70;50.60;;;;;;461376;258;1068;-44
2021/05/22 08:36:25;;;;;;;;;;;18.70;50.50;;;;;;460993;258;1796;-44
2021/05/22 08:38:26;;;;;;;;;;;18.60;50.60;;;;;;461075;258;1094;-44
2021/05/22 08:40:29;;;;;;;;;;;18.60;50.70;;;;;;461215;258;1241;-44
2021/05/22 08:42:29;;;;;;;;;;;18.60;50.70;;;;;;461238;258;2220;-44
2021/05/22 08:44:30;;;;;;;;;;;18.50;50.70;;;;;;461061;258;1197;-45
2021/05/22 08:46:31;;;;;;;;;;;18.50;50.70;;;;;;461236;258;1345;-45
2021/05/22 08:48:32;;;;;;;;;;;18.50;50.70;;;;;;461160;258;1052;-44
2021/05/22 08:50:34;;;;;;;;;;;18.50;50.80;;;;;;461403;258;1079;-44
2021/05/22 08:52:35;;;;;;;;;;;18.50;50.80;;;;;;461575;258;1081;-44
2021/05/22 08:54:36;;;;;;;;;;;18.50;50.80;;;;;;461538;258;1097;-44
2021/05/22 08:56:37;;;;;;;;;;;18.50;50.90;;;;;;461263;258;1527;-45
2021/05/22 08:58:39;;;;;;;;;;;18.50;50.80;;;;;;461151;258;994;-44
2021/05/22 09:00:41;;;;;;;;;;;18.50;50.80;;;;;;461103;258;1213;-44
2021/05/22 09:02:41;;;;;;;;;;;18.50;50.80;;;;;;460977;258;2219;-44
2021/05/22 09:04:43;;;;;;;;;;;18.50;50.70;;;;;;461486;258;1112;-44
2021/05/22 09:06:44;;;;;;;;;;;18.50;50.70;;;;;;461405;258;1230;-45
2021/05/22 09:08:45;;;;;;;;;;;18.50;50.80;;;;;;461371;258;1111;-45
2021/05/22 09:10:46;;;;;;;;;;;18.50;50.70;;;;;;461260;258;1499;-44
2021/05/22 09:12:48;;;;;;;;;;;18.50;50.60;;;;;;461472;258;1233;-44
2021/05/22 09:14:51;;;;;;;;;;;18.50;50.80;;;;;;461404;258;1353;-45
2021/05/22 09:16:50;;;;;;;;;;;18.50;50.80;;;;;;461028;258;2212;-44
2021/05/22 09:18:52;;;;;;;;;;;18.60;50.50;;;;;;461484;258;1087;-45
2021/05/22 09:20:53;;;;;;;;;;;19.10;49.30;;;;;;461527;258;1164;-45
2021/05/22 09:22:54;;;;;;;;;;;19.50;48.10;;;;;;461454;258;2211;-45
2021/05/22 09:24:55;;;;;;;;;;;19.80;47.30;;;;;;461120;258;1076;-44
2021/05/22 09:26:57;;;;;;;;;;;20.00;46.90;;;;;;461269;258;1202;-45
2021/05/22 09:28:59;;;;;;;;;;;20.20;46.50;;;;;;461164;258;1080;-44
2021/05/22 09:30:59;;;;;;;;;;;20.30;46.20;;;;;;461039;258;2331;-45
2021/05/22 09:33:01;;;;;;;;;;;20.40;46.00;;;;;;461066;258;1120;-45
2021/05/22 09:35:02;;;;;;;;;;;20.50;45.80;;;;;;461082;258;1045;-44
2021/05/22 09:37:03;;;;;;;;;;;20.60;45.60;;;;;;461341;258;1263;-45
2021/05/22 09:39:04;;;;;;;;;;;20.60;45.40;;;;;;461405;258;1152;-45
2021/05/22 09:41:06;;;;;;;;;;;20.60;45.20;;;;;;461550;258;1149;-44
2021/05/22 09:43:07;;;;;;;;;;;20.70;45.20;;;;;;461256;258;2192;-45
2021/05/22 09:45:08;;;;;;;;;;;20.70;45.10;;;;;;461359;258;1209;-45
2021/05/22 09:47:10;;;;;;;;;;;20.80;45.00;;;;;;461203;258;1244;-45
2021/05/22 09:49:11;;;;;;;;;;;20.90;44.90;;;;;;461314;258;1080;-45
2021/05/22 09:51:12;;;;;;;;;;;20.90;44.80;;;;;;461023;258;1229;-45
2021/05/22 09:53:14;;;;;;;;;;;20.90;44.80;;;;;;461454;258;1018;-45
2021/05/22 09:55:15;;;;;;;;;;;20.90;44.70;;;;;;461059;258;1101;-44
2021/05/22 09:57:16;;;;;;;;;;;21.00;44.60;;;;;;461367;258;1200;-45
2021/05/22 09:59:18;;;;;;;;;;;21.00;44.50;;;;;;461084;258;1177;-45
2021/05/22 10:01:19;;;;;;;;;;;21.10;44.50;;;;;;461156;258;1311;-45
2021/05/22 10:03:20;;;;;;;;;;;21.10;44.40;;;;;;461368;258;2212;-45
2021/05/22 10:05:23;;;;;;;;;;;21.10;44.30;;;;;;461063;258;1239;-45
2021/05/22 10:07:24;;;;;;;;;;;21.10;44.30;;;;;;461223;258;1173;-45
2021/05/22 10:09:27;;;;;;;;;;;21.20;44.30;;;;;;461512;258;1123;-45
2021/05/22 10:11:27;;;;;;;;;;;21.20;44.20;;;;;;461275;258;2183;-45
2021/05/22 10:13:28;;;;;;;;;;;21.20;44.10;;;;;;461545;258;1221;-45
2021/05/22 10:15:29;;;;;;;;;;;21.30;44.10;;;;;;461125;258;1208;-45
2021/05/22 10:17:31;;;;;;;;;;;21.30;44.00;;;;;;461469;258;1244;-45
2021/05/22 10:19:32;;;;;;;;;;;21.30;44.00;;;;;;461456;258;1098;-45
2021/05/22 10:21:33;;;;;;;;;;;21.40;44.00;;;;;;461444;258;1174;-45
2021/05/22 10:23:34;;;;;;;;;;;21.40;43.90;;;;;;461294;258;2137;-45
2021/05/22 10:25:36;;;;;;;;;;;21.40;43.90;;;;;;461263;258;1074;-45
2021/05/22 10:27:37;;;;;;;;;;;21.40;43.80;;;;;;461353;258;1150;-45
2021/05/22 10:29:38;;;;;;;;;;;21.50;43.80;;;;;;461267;258;1115;-45
2021/05/22 10:31:40;;;;;;;;;;;21.50;43.80;;;;;;461201;258;1154;-45
2021/05/22 10:33:41;;;;;;;;;;;21.50;43.70;;;;;;461515;258;1092;-45
2021/05/22 10:35:42;;;;;;;;;;;21.50;43.70;;;;;;461295;258;1081;-45
2021/05/22 10:37:44;;;;;;;;;;;21.50;43.60;;;;;;461200;258;1568;-45
2021/05/22 10:39:45;;;;;;;;;;;21.50;43.60;;;;;;461548;258;1076;-45
2021/05/22 10:41:47;;;;;;;;;;;21.50;43.60;;;;;;461313;258;1211;-45
2021/05/22 10:43:50;;;;;;;;;;;21.50;43.50;;;;;;461569;258;2133;-45
2021/05/22 10:45:49;;;;;;;;;;;21.60;43.50;;;;;;460994;258;1578;-45
2021/05/22 10:47:50;;;;;;;;;;;21.60;43.60;;;;;;460997;258;1254;-45
2021/05/22 10:49:52;;;;;;;;;;;21.60;43.30;;;;;;461105;258;1081;-45
2021/05/22 10:51:53;;;;;;;;;;;21.40;43.70;;;;;;461006;258;1255;-44
2021/05/22 10:53:54;;;;;;;;;;;20.90;44.90;;;;;;461390;258;1160;-45
2021/05/22 10:55:56;;;;;;;;;;;20.50;45.80;;;;;;461063;258;1323;-45
2021/05/22 10:57:57;;;;;;;;;;;20.20;46.50;;;;;;461182;258;1124;-45
2021/05/22 10:59:58;;;;;;;;;;;20.00;47.10;;;;;;461201;258;1143;-44
2021/05/22 11:02:00;;;;;;;;;;;19.80;47.60;;;;;;461251;258;1197;-45
2021/05/22 11:04:01;;;;;;;;;;;19.70;47.90;;;;;;461501;258;2129;-45
2021/05/22 11:06:02;;;;;;;;;;;19.60;48.20;;;;;;461228;258;1129;-44
2021/05/22 11:08:04;;;;;;;;;;;19.60;48.30;;;;;;461104;258;1269;-44
2021/05/22 11:10:05;;;;;;;;;;;19.50;48.50;;;;;;461140;258;1116;-44
2021/05/22 11:12:06;;;;;;;;;;;19.40;48.70;;;;;;461540;258;1200;-44
2021/05/22 11:14:07;;;;;;;;;;;19.30;48.90;;;;;;461507;258;1093;-44
2021/05/22 11:16:09;;;;;;;;;;;19.20;49.00;;;;;;461458;258;1184;-44
2021/05/22 11:18:10;;;;;;;;;;;19.20;49.20;;;;;;461272;258;1092;-44
2021/05/22 11:20:11;;;;;;;;;;;19.20;49.40;;;;;;461064;258;1106;-44
2021/05/22 11:22:14;;;;;;;;;;;19.10;49.40;;;;;;461333;258;2157;-44
2021/05/22 11:24:14;;;;;;;;;;;19.10;49.50;;;;;;461051;258;2050;-44
2021/05/22 11:26:15;;;;;;;;;;;19.00;49.50;;;;;;461234;258;1306;-45
2021/05/22 11:28:20;;;;;;;;;;;19.00;49.60;;;;;;461161;258;1093;-44
2021/05/22 11:30:21;;;;;;;;;;;19.00;49.60;;;;;;461063;258;1223;-44
2021/05/22 11:32:23;;;;;;;;;;;19.00;49.70;;;;;;461397;258;1252;-44
2021/05/22 11:34:24;;;;;;;;;;;19.00;49.80;;;;;;461233;258;1109;-44
2021/05/22 11:36:25;;;;;;;;;;;18.90;49.70;;;;;;461102;258;1204;-44
2021/05/22 11:38:26;;;;;;;;;;;18.90;49.80;;;;;;461220;258;1110;-44
2021/05/22 11:40:28;;;;;;;;;;;18.90;49.80;;;;;;461226;258;1123;-44
2021/05/22 11:42:29;;;;;;;;;;;18.90;49.90;;;;;;461058;258;2196;-45
2021/05/22 11:44:30;;;;;;;;;;;18.90;50.00;;;;;;461257;258;1074;-45
2021/05/22 11:46:31;;;;;;;;;;;18.80;49.90;;;;;;461043;258;1522;-45
2021/05/22 11:48:33;;;;;;;;;;;18.80;50.00;;;;;;461355;258;1177;-44
2021/05/22 11:50:34;;;;;;;;;;;18.80;50.00;;;;;;461174;258;1494;-45
2021/05/22 11:52:37;;;;;;;;;;;18.80;50.00;;;;;;461250;258;1221;-44
2021/05/22 11:54:37;;;;;;;;;;;18.70;50.10;;;;;;461514;258;1918;-44
2021/05/22 11:56:38;;;;;;;;;;;18.70;50.20;;;;;;461209;258;1214;-44